• Join FlightAware (Why Join?)
  • Login
  • US Flag 
07:43AM EDT


 

Airport Tracker/Info


-or-


 

Live Flight TrackerFlight Track Log ✈ CCA1226 ✈ 26-May-2013 ✈ ZGKL / KWL - ZBAA / PEK

Flight Track Log - Related Links

Times and Time Zones

All times are in EDT time to prevent confusion due to time zone crossing. See the CCA1226 flight status page for this flight to view local times or setup timezone preferences in your user account.

Time Position Orientation Groundspeed Altitude Reporting Facility
EDT Latitude Longitude Course Direction KTS MPH feet Rate Location/Type
10:22AM 25.7103 110.2235 19° North  Level Estimated
10:23AM 25.8333 110.2698 19° North  Level Estimated
10:24AM 25.9563 110.3162 19° North  Level Estimated
10:25AM 26.0793 110.3627 19° North  Level Estimated
10:26AM 26.2022 110.4092 19° North  Level Estimated
10:27AM 26.3252 110.4559 19° North  Level Estimated
10:28AM 26.4481 110.5027 19° North  Level Estimated
10:29AM 26.5710 110.5496 19° North  Level Estimated
10:30AM 26.6939 110.5966 19° North  Level Estimated
10:31AM 26.8168 110.6437 19° North  Level Estimated
10:32AM 26.9397 110.6909 19° North  Level Estimated
10:33AM 27.0625 110.7382 19° North  Level Estimated
10:34AM 27.1854 110.7856 19° North  Level Estimated
10:35AM 27.3082 110.8331 19° North  Level Estimated
10:36AM 27.4310 110.8807 19° North  Level Estimated
10:37AM 27.5538 110.9284 19° North  Level Estimated
10:38AM 27.6766 110.9763 19° North  Level Estimated
10:39AM 27.7993 111.0242 19° North  Level Estimated
10:40AM 27.9221 111.0722 19° North  Level Estimated
10:41AM 28.0448 111.1204 19° North  Level Estimated
10:42AM 28.1675 111.1686 19° North  Level Estimated
10:43AM 28.2902 111.2170 19° North  Level Estimated
10:44AM 28.4128 111.2655 19° North  Level Estimated
10:45AM 28.5355 111.3141 19° North  Level Estimated
10:46AM 28.6581 111.3628 19° North  Level Estimated
10:47AM 28.7808 111.4116 19° North  Level Estimated
10:48AM 28.9034 111.4606 19° North  Level Estimated
10:49AM 29.0260 111.5096 19° North  Level Estimated
10:50AM 29.1485 111.5588 19° North  Level Estimated
10:51AM 29.2711 111.6081 19° North  Level Estimated
10:52AM 29.3936 111.6575 19° North  Level Estimated
10:53AM 29.5161 111.7070 19° North  Level Estimated
10:54AM 29.6386 111.7567 19° North  Level Estimated
10:55AM 29.7611 111.8064 19° North  Level Estimated
10:56AM 29.8836 111.8563 19° North  Level Estimated
10:57AM 30.0060 111.9063 19° North  Level Estimated
10:58AM 30.1284 111.9565 20° North  Level Estimated
10:59AM 30.2508 112.0067 20° North  Level Estimated
11:00AM 30.3732 112.0571 20° North  Level Estimated
11:01AM 30.4956 112.1076 20° North  Level Estimated
11:02AM 30.6179 112.1583 20° North  Level Estimated
11:03AM 30.7402 112.2090 20° North  Level Estimated
11:04AM 30.8625 112.2599 20° North  Level Estimated
11:05AM 30.9848 112.3110 20° North  Level Estimated
11:06AM 31.1071 112.3621 20° North  Level Estimated
11:07AM 31.2293 112.4134 20° North  Level Estimated
11:08AM 31.3515 112.4648 20° North  Level Estimated
11:09AM 31.4737 112.5164 20° North  Level Estimated
11:10AM 31.5959 112.5681 20° North  Level Estimated
11:11AM 31.7181 112.6199 20° North  Level Estimated
11:12AM 31.8402 112.6719 20° North  Level Estimated
11:13AM 31.9623 112.7240 20° North  Level Estimated
11:14AM 32.0844 112.7762 20° North  Level Estimated
11:15AM 32.2065 112.8286 20° North  Level Estimated
11:16AM 32.3285 112.8811 20° North  Level Estimated
11:17AM 32.4506 112.9338 20° North  Level Estimated
11:18AM 32.5726 112.9866 20° North  Level Estimated
11:19AM 32.6946 113.0395 20° North  Level Estimated
11:20AM 32.8166 113.0926 20° North  Level Estimated
11:21AM 32.9385 113.1459 20° North  Level Estimated
11:22AM 33.0604 113.1992 20° North  Level Estimated
11:23AM 33.1823 113.2528 20° North  Level Estimated
11:24AM 33.3042 113.3064 20° North  Level Estimated
11:25AM 33.4260 113.3603 20° North  Level Estimated
11:26AM 33.5479 113.4143 20° North  Level Estimated
11:27AM 33.6697 113.4684 20° North  Level Estimated
11:28AM 33.7915 113.5227 20° North  Level Estimated
11:29AM 33.9132 113.5771 20° North  Level Estimated
11:30AM 34.0350 113.6317 20° North  Level Estimated
11:31AM 34.1567 113.6865 20° North  Level Estimated
11:32AM 34.2784 113.7414 20° North  Level Estimated
11:33AM 34.4000 113.7965 20° North  Level Estimated
11:34AM 34.5216 113.8517 21° North  Level Estimated
11:35AM 34.6433 113.9071 21° North  Level Estimated
11:36AM 34.7649 113.9627 21° North  Level Estimated
11:37AM 34.8864 114.0184 21° North  Level Estimated
11:38AM 35.0079 114.0743 21° North  Level Estimated
11:39AM 35.1295 114.1303 21° North  Level Estimated
11:40AM 35.2509 114.1866 21° North  Level Estimated
11:41AM 35.3724 114.2430 21° North  Level Estimated
11:42AM 35.4938 114.2995 21° North  Level Estimated
11:43AM 35.6152 114.3562 21° North  Level Estimated
11:44AM 35.7366 114.4131 21° North  Level Estimated
11:45AM 35.8579 114.4702 21° North  Level Estimated
11:46AM 35.9793 114.5275 21° North  Level Estimated
11:47AM 36.1006 114.5849 21° North  Level Estimated
11:48AM 36.2218 114.6425 21° North  Level Estimated
11:49AM 36.3431 114.7003 21° North  Level Estimated
11:50AM 36.4643 114.7583 21° North  Level Estimated
11:51AM 36.5855 114.8164 21° North  Level Estimated
11:52AM 36.7066 114.8747 21° North  Level Estimated
11:53AM 36.8278 114.9333 21° North  Level Estimated
11:54AM 36.9489 114.9920 21° North  Level Estimated
11:55AM 37.0699 115.0509 21° North  Level Estimated
11:56AM 37.1910 115.1099 21° North  Level Estimated
11:57AM 37.3120 115.1692 21° North  Level Estimated
11:58AM 37.4330 115.2287 21° North  Level Estimated
11:59AM 37.5539 115.2883 21° North  Level Estimated
12:00PM 37.6748 115.3482 21° North  Level Estimated
12:01PM 37.7957 115.4082 21° North  Level Estimated
12:02PM 37.9166 115.4684 21° North  Level Estimated
12:03PM 38.0374 115.5289 21° North  Level Estimated
12:04PM 38.1582 115.5895 22° Northeast  Level Estimated
12:05PM 38.2790 115.6503 22° Northeast  Level Estimated
12:06PM 38.3997 115.7114 22° Northeast  Level Estimated
12:07PM 38.5204 115.7726 22° Northeast  Level Estimated
12:08PM 38.6411 115.8341 22° Northeast  Level Estimated
12:09PM 38.7617 115.8957 22° Northeast  Level Estimated
12:10PM 38.8824 115.9576 22° Northeast  Level Estimated
12:11PM 39.0029 116.0196 22° Northeast  Level Estimated
12:12PM 39.1235 116.0819 22° Northeast  Level Estimated
12:13PM 39.2440 116.1444 22° Northeast  Level Estimated
12:14PM 39.3645 116.2071 22° Northeast  Level Estimated
12:15PM 39.4849 116.2701 22° Northeast  Level Estimated
12:16PM 39.6053 116.3332 22° Northeast  Level Estimated
12:17PM 39.7257 116.3966 22° Northeast  Level Estimated
12:18PM 39.8460 116.4602 22° Northeast  Level Estimated
12:19PM 39.9663 116.5240 22° Northeast  Level Estimated
12:20PM 40.0801 116.5846 22° Northeast  Level Estimated
12:21PM 40.0801 116.5846 288° West  Level Estimated
12:22PM 40.0801 116.5846 288° West  Level Estimated
12:23PM 40.0801 116.5846 288° West  Level Estimated
12:24PM 40.0801 116.5846 288° West  Level Estimated
12:25PM 40.0801 116.5846 288° West  Level Estimated
12:26PM 40.0801 116.5846 288° West  Level Estimated
12:27PM 40.0801 116.5846 288° West  Level Estimated
12:28PM 40.0801 116.5846 288° West  Level Estimated
12:29PM 40.0801 116.5846 288° West  Level Estimated
12:30PM 40.0801 116.5846 288° West  Level Estimated
12:31PM 40.0801 116.5846 288° West  Level Estimated
12:32PM 40.0801 116.5846 288° West  Level Estimated
12:33PM 40.0801 116.5846 288° West  Level Estimated
12:34PM 40.0801 116.5846 288° West  Level Estimated
12:35PM 40.0801 116.5846 288° West  Level Estimated
12:36PM 40.0801 116.5846 288° West  Level Estimated